KCOD

Yellowstone Regional Airport

Cody, Wyoming, USA
METAR KCOD 240156Z AUTO 29008KT 10SM SCT075 OVC100 14/04 A2994 RMK AO2 SLP121 T01440044
Observed Flight Rules
May-24 @ 01:56 UTC (21 minutes ago) Visual Flight Rules
Wind Visibility Clouds
290° at 8 knots 10 miles
  • Scattered at 7,500' AGL
  • Overcast at 10,000' AGL
Temperatures Readings
Current 14°C / 57°F
Dewpoint 4°C / 39°F
Humidity 51%
Altimeter 29.94" Hg
Pressure 1012.1 hPa
Elevation 1553
METAR KCOD 240156Z AUTO 29008KT 10SM SCT075 OVC100 14/04 A2994 RMK AO2 SLP121 T01440044
Observed Flight Rules
May-24 @ 01:56 UTC
(21 minutes ago)
VFR
Wind Visibility
290° at 8 knots 10 miles
Clouds
  • Scattered at 7,500' AGL
  • Overcast at 10,000' AGL
Temperature Dewpoint
14°C / 57°F 4°C / 39°F
Humidity Altimeter Pressure
51% 29.94" Hg 1012.1 hPa